sensor_id;sensor_type;location;lat;lon;timestamp;P1;durP1;ratioP1;P2;durP2;ratioP2
11054;SDS011;5580;50.106;8.702;2022-09-03T00:02:06;3.93;;;3.00;;
11054;SDS011;5580;50.106;8.702;2022-09-03T00:07:38;3.30;;;3.00;;
11054;SDS011;5580;50.106;8.702;2022-09-03T00:10:12;3.00;;;2.80;;
11054;SDS011;5580;50.106;8.702;2022-09-03T00:12:44;6.10;;;3.10;;
11054;SDS011;5580;50.106;8.702;2022-09-03T00:15:12;6.20;;;3.00;;
11054;SDS011;5580;50.106;8.702;2022-09-03T00:20:29;4.83;;;3.03;;
11054;SDS011;5580;50.106;8.702;2022-09-03T00:23:20;5.30;;;3.23;;
11054;SDS011;5580;50.106;8.702;2022-09-03T00:25:51;5.57;;;3.33;;
11054;SDS011;5580;50.106;8.702;2022-09-03T00:33:54;7.83;;;3.43;;
11054;SDS011;5580;50.106;8.702;2022-09-03T00:36:34;5.00;;;3.27;;
11054;SDS011;5580;50.106;8.702;2022-09-03T00:39:12;5.10;;;3.30;;
11054;SDS011;5580;50.106;8.702;2022-09-03T01:05:10;3.57;;;3.27;;
11054;SDS011;5580;50.106;8.702;2022-09-03T01:13:08;5.67;;;3.10;;
11054;SDS011;5580;50.106;8.702;2022-09-03T01:15:45;4.50;;;3.40;;
11054;SDS011;5580;50.106;8.702;2022-09-03T01:18:41;5.40;;;3.10;;
11054;SDS011;5580;50.106;8.702;2022-09-03T01:23:47;3.97;;;2.50;;
11054;SDS011;5580;50.106;8.702;2022-09-03T01:31:28;3.97;;;3.23;;
11054;SDS011;5580;50.106;8.702;2022-09-03T01:39:54;5.50;;;3.10;;
11054;SDS011;5580;50.106;8.702;2022-09-03T01:42:32;3.77;;;3.10;;
11054;SDS011;5580;50.106;8.702;2022-09-03T01:50:45;4.00;;;3.07;;
11054;SDS011;5580;50.106;8.702;2022-09-03T01:56:24;3.30;;;3.00;;
11054;SDS011;5580;50.106;8.702;2022-09-03T01:59:22;3.80;;;2.93;;
11054;SDS011;5580;50.106;8.702;2022-09-03T02:02:04;4.20;;;3.10;;
11054;SDS011;5580;50.106;8.702;2022-09-03T02:04:35;3.13;;;2.90;;
11054;SDS011;5580;50.106;8.702;2022-09-03T02:07:01;3.30;;;3.00;;
11054;SDS011;5580;50.106;8.702;2022-09-03T02:09:27;5.00;;;3.00;;
11054;SDS011;5580;50.106;8.702;2022-09-03T02:12:02;7.30;;;3.03;;
11054;SDS011;5580;50.106;8.702;2022-09-03T02:14:38;4.07;;;3.10;;
11054;SDS011;5580;50.106;8.702;2022-09-03T02:17:04;4.53;;;2.70;;
11054;SDS011;5580;50.106;8.702;2022-09-03T02:19:32;3.93;;;3.10;;
11054;SDS011;5580;50.106;8.702;2022-09-03T02:22:01;2.97;;;2.67;;
11054;SDS011;5580;50.106;8.702;2022-09-03T02:24:27;3.23;;;2.83;;
11054;SDS011;5580;50.106;8.702;2022-09-03T02:26:53;3.63;;;2.47;;
11054;SDS011;5580;50.106;8.702;2022-09-03T02:29:19;2.93;;;2.60;;
11054;SDS011;5580;50.106;8.702;2022-09-03T02:31:46;6.60;;;2.90;;
11054;SDS011;5580;50.106;8.702;2022-09-03T02:34:12;3.70;;;3.17;;
11054;SDS011;5580;50.106;8.702;2022-09-03T02:36:39;3.33;;;3.03;;
11054;SDS011;5580;50.106;8.702;2022-09-03T02:39:06;3.37;;;3.07;;
11054;SDS011;5580;50.106;8.702;2022-09-03T02:41:32;4.47;;;3.20;;
11054;SDS011;5580;50.106;8.702;2022-09-03T02:44:03;5.73;;;3.10;;
11054;SDS011;5580;50.106;8.702;2022-09-03T02:46:44;3.87;;;3.00;;
11054;SDS011;5580;50.106;8.702;2022-09-03T02:49:14;5.63;;;3.27;;
11054;SDS011;5580;50.106;8.702;2022-09-03T02:51:40;3.67;;;2.90;;
11054;SDS011;5580;50.106;8.702;2022-09-03T02:54:08;3.10;;;2.70;;
11054;SDS011;5580;50.106;8.702;2022-09-03T02:56:34;3.00;;;2.80;;
11054;SDS011;5580;50.106;8.702;2022-09-03T02:59:01;4.60;;;2.93;;
11054;SDS011;5580;50.106;8.702;2022-09-03T03:01:28;5.13;;;2.90;;
11054;SDS011;5580;50.106;8.702;2022-09-03T03:03:53;3.40;;;2.60;;
11054;SDS011;5580;50.106;8.702;2022-09-03T03:06:19;3.30;;;3.03;;
11054;SDS011;5580;50.106;8.702;2022-09-03T03:08:45;4.10;;;3.20;;
11054;SDS011;5580;50.106;8.702;2022-09-03T03:11:11;3.20;;;2.80;;
11054;SDS011;5580;50.106;8.702;2022-09-03T03:13:42;3.30;;;3.00;;
11054;SDS011;5580;50.106;8.702;2022-09-03T03:16:09;3.67;;;3.03;;
11054;SDS011;5580;50.106;8.702;2022-09-03T03:18:35;3.80;;;3.10;;
11054;SDS011;5580;50.106;8.702;2022-09-03T03:21:08;3.33;;;3.03;;
11054;SDS011;5580;50.106;8.702;2022-09-03T03:23:35;3.93;;;2.93;;
11054;SDS011;5580;50.106;8.702;2022-09-03T03:26:02;5.33;;;2.77;;
11054;SDS011;5580;50.106;8.702;2022-09-03T03:28:30;4.17;;;3.20;;
11054;SDS011;5580;50.106;8.702;2022-09-03T03:30:57;4.80;;;2.93;;
11054;SDS011;5580;50.106;8.702;2022-09-03T03:33:30;5.67;;;2.73;;
11054;SDS011;5580;50.106;8.702;2022-09-03T03:35:55;3.93;;;3.10;;
11054;SDS011;5580;50.106;8.702;2022-09-03T03:38:21;5.87;;;3.20;;
11054;SDS011;5580;50.106;8.702;2022-09-03T03:40:46;5.60;;;3.27;;
11054;SDS011;5580;50.106;8.702;2022-09-03T03:43:12;3.27;;;2.97;;
11054;SDS011;5580;50.106;8.702;2022-09-03T03:45:38;6.37;;;3.23;;
11054;SDS011;5580;50.106;8.702;2022-09-03T03:48:03;5.93;;;3.30;;
11054;SDS011;5580;50.106;8.702;2022-09-03T03:50:29;5.43;;;3.17;;
11054;SDS011;5580;50.106;8.702;2022-09-03T03:52:57;4.90;;;3.20;;
11054;SDS011;5580;50.106;8.702;2022-09-03T03:55:24;3.57;;;2.60;;
11054;SDS011;5580;50.106;8.702;2022-09-03T03:57:50;4.20;;;3.20;;
11054;SDS011;5580;50.106;8.702;2022-09-03T04:00:15;4.40;;;3.17;;
11054;SDS011;5580;50.106;8.702;2022-09-03T04:02:41;3.67;;;3.00;;
11054;SDS011;5580;50.106;8.702;2022-09-03T04:05:07;5.47;;;3.00;;
11054;SDS011;5580;50.106;8.702;2022-09-03T04:07:33;4.90;;;3.03;;
11054;SDS011;5580;50.106;8.702;2022-09-03T04:09:58;3.27;;;2.83;;
11054;SDS011;5580;50.106;8.702;2022-09-03T04:12:25;5.23;;;3.30;;
11054;SDS011;5580;50.106;8.702;2022-09-03T04:14:51;3.87;;;3.50;;
11054;SDS011;5580;50.106;8.702;2022-09-03T04:17:17;5.87;;;3.30;;
11054;SDS011;5580;50.106;8.702;2022-09-03T04:19:42;4.03;;;3.10;;
11054;SDS011;5580;50.106;8.702;2022-09-03T04:22:12;4.73;;;3.13;;
11054;SDS011;5580;50.106;8.702;2022-09-03T04:24:39;4.83;;;3.23;;
11054;SDS011;5580;50.106;8.702;2022-09-03T04:27:05;4.77;;;3.30;;
11054;SDS011;5580;50.106;8.702;2022-09-03T04:29:30;5.57;;;3.57;;
11054;SDS011;5580;50.106;8.702;2022-09-03T04:31:56;6.17;;;3.10;;
11054;SDS011;5580;50.106;8.702;2022-09-03T04:34:40;4.73;;;3.20;;
11054;SDS011;5580;50.106;8.702;2022-09-03T04:37:06;4.47;;;2.90;;
11054;SDS011;5580;50.106;8.702;2022-09-03T04:39:33;5.80;;;3.23;;
11054;SDS011;5580;50.106;8.702;2022-09-03T04:41:58;9.20;;;3.77;;
11054;SDS011;5580;50.106;8.702;2022-09-03T04:44:24;6.50;;;3.70;;
11054;SDS011;5580;50.106;8.702;2022-09-03T04:46:50;10.23;;;3.53;;
11054;SDS011;5580;50.106;8.702;2022-09-03T04:49:17;5.77;;;3.20;;
11054;SDS011;5580;50.106;8.702;2022-09-03T04:51:43;6.60;;;3.57;;
11054;SDS011;5580;50.106;8.702;2022-09-03T04:54:09;6.23;;;3.17;;
11054;SDS011;5580;50.106;8.702;2022-09-03T04:56:35;4.90;;;3.33;;
11054;SDS011;5580;50.106;8.702;2022-09-03T04:59:04;5.50;;;3.33;;
11054;SDS011;5580;50.106;8.702;2022-09-03T05:01:32;4.63;;;3.67;;
11054;SDS011;5580;50.106;8.702;2022-09-03T05:03:59;8.57;;;3.60;;
11054;SDS011;5580;50.106;8.702;2022-09-03T05:06:26;7.93;;;3.40;;
11054;SDS011;5580;50.106;8.702;2022-09-03T05:08:53;5.07;;;3.20;;
11054;SDS011;5580;50.106;8.702;2022-09-03T05:11:19;6.53;;;3.47;;
11054;SDS011;5580;50.106;8.702;2022-09-03T05:13:47;3.87;;;3.30;;
11054;SDS011;5580;50.106;8.702;2022-09-03T05:16:13;8.60;;;3.47;;
11054;SDS011;5580;50.106;8.702;2022-09-03T05:18:40;3.83;;;3.43;;
11054;SDS011;5580;50.106;8.702;2022-09-03T05:21:07;7.03;;;3.40;;
11054;SDS011;5580;50.106;8.702;2022-09-03T05:23:34;6.03;;;3.30;;
11054;SDS011;5580;50.106;8.702;2022-09-03T05:26:02;3.77;;;3.17;;
11054;SDS011;5580;50.106;8.702;2022-09-03T05:28:33;5.13;;;3.13;;
11054;SDS011;5580;50.106;8.702;2022-09-03T05:33:35;5.07;;;3.20;;
11054;SDS011;5580;50.106;8.702;2022-09-03T05:36:03;5.33;;;3.50;;
11054;SDS011;5580;50.106;8.702;2022-09-03T05:38:30;6.13;;;3.40;;
11054;SDS011;5580;50.106;8.702;2022-09-03T05:40:59;6.07;;;3.27;;
11054;SDS011;5580;50.106;8.702;2022-09-03T05:43:26;3.83;;;3.20;;
11054;SDS011;5580;50.106;8.702;2022-09-03T05:45:59;5.87;;;3.10;;
11054;SDS011;5580;50.106;8.702;2022-09-03T05:48:27;7.83;;;3.90;;
11054;SDS011;5580;50.106;8.702;2022-09-03T05:53:27;3.53;;;3.27;;
11054;SDS011;5580;50.106;8.702;2022-09-03T05:55:54;3.27;;;2.97;;
11054;SDS011;5580;50.106;8.702;2022-09-03T05:58:21;4.33;;;3.20;;
11054;SDS011;5580;50.106;8.702;2022-09-03T06:00:47;4.23;;;3.10;;
11054;SDS011;5580;50.106;8.702;2022-09-03T06:03:13;6.90;;;3.57;;
11054;SDS011;5580;50.106;8.702;2022-09-03T06:05:38;5.97;;;3.13;;
11054;SDS011;5580;50.106;8.702;2022-09-03T06:08:04;3.73;;;3.07;;
11054;SDS011;5580;50.106;8.702;2022-09-03T06:10:29;7.20;;;3.43;;
11054;SDS011;5580;50.106;8.702;2022-09-03T06:12:55;6.37;;;3.30;;
11054;SDS011;5580;50.106;8.702;2022-09-03T06:15:27;6.47;;;3.50;;
11054;SDS011;5580;50.106;8.702;2022-09-03T06:17:53;5.33;;;3.20;;
11054;SDS011;5580;50.106;8.702;2022-09-03T06:20:19;3.40;;;3.10;;
11054;SDS011;5580;50.106;8.702;2022-09-03T06:22:47;5.57;;;3.33;;
11054;SDS011;5580;50.106;8.702;2022-09-03T06:25:16;4.87;;;3.50;;
11054;SDS011;5580;50.106;8.702;2022-09-03T06:27:43;4.20;;;3.50;;
11054;SDS011;5580;50.106;8.702;2022-09-03T06:30:09;5.50;;;3.40;;
11054;SDS011;5580;50.106;8.702;2022-09-03T06:32:43;3.47;;;3.17;;
11054;SDS011;5580;50.106;8.702;2022-09-03T06:35:09;4.03;;;3.20;;
11054;SDS011;5580;50.106;8.702;2022-09-03T06:37:38;4.57;;;3.33;;
11054;SDS011;5580;50.106;8.702;2022-09-03T06:40:04;8.77;;;3.70;;
11054;SDS011;5580;50.106;8.702;2022-09-03T06:42:36;3.90;;;3.50;;
11054;SDS011;5580;50.106;8.702;2022-09-03T06:45:08;5.77;;;3.40;;
11054;SDS011;5580;50.106;8.702;2022-09-03T06:47:35;6.57;;;3.80;;
11054;SDS011;5580;50.106;8.702;2022-09-03T06:50:00;6.93;;;3.40;;
11054;SDS011;5580;50.106;8.702;2022-09-03T06:52:29;3.90;;;3.50;;
11054;SDS011;5580;50.106;8.702;2022-09-03T06:54:55;5.50;;;3.50;;
11054;SDS011;5580;50.106;8.702;2022-09-03T06:57:20;4.60;;;3.57;;
11054;SDS011;5580;50.106;8.702;2022-09-03T06:59:46;5.00;;;3.77;;
11054;SDS011;5580;50.106;8.702;2022-09-03T07:02:13;4.87;;;3.37;;
11054;SDS011;5580;50.106;8.702;2022-09-03T07:04:39;5.53;;;3.87;;
11054;SDS011;5580;50.106;8.702;2022-09-03T07:07:04;4.73;;;3.83;;
11054;SDS011;5580;50.106;8.702;2022-09-03T07:09:30;8.67;;;3.53;;
11054;SDS011;5580;50.106;8.702;2022-09-03T07:12:00;6.53;;;3.80;;
11054;SDS011;5580;50.106;8.702;2022-09-03T07:14:25;4.40;;;3.50;;
11054;SDS011;5580;50.106;8.702;2022-09-03T07:16:51;6.87;;;3.80;;
11054;SDS011;5580;50.106;8.702;2022-09-03T07:19:16;4.33;;;3.50;;
11054;SDS011;5580;50.106;8.702;2022-09-03T07:21:42;4.23;;;3.40;;
11054;SDS011;5580;50.106;8.702;2022-09-03T07:24:09;5.07;;;3.70;;
11054;SDS011;5580;50.106;8.702;2022-09-03T07:26:36;3.90;;;3.50;;
11054;SDS011;5580;50.106;8.702;2022-09-03T07:29:10;5.87;;;3.77;;
11054;SDS011;5580;50.106;8.702;2022-09-03T07:31:38;6.10;;;3.70;;
11054;SDS011;5580;50.106;8.702;2022-09-03T07:34:09;6.17;;;3.60;;
11054;SDS011;5580;50.106;8.702;2022-09-03T07:36:40;4.73;;;3.90;;
11054;SDS011;5580;50.106;8.702;2022-09-03T07:39:15;3.93;;;3.47;;
11054;SDS011;5580;50.106;8.702;2022-09-03T07:41:42;4.00;;;3.60;;
11054;SDS011;5580;50.106;8.702;2022-09-03T07:44:09;5.13;;;3.70;;
11054;SDS011;5580;50.106;8.702;2022-09-03T07:46:37;4.97;;;3.83;;
11054;SDS011;5580;50.106;8.702;2022-09-03T07:49:03;4.63;;;3.47;;
11054;SDS011;5580;50.106;8.702;2022-09-03T07:51:36;5.43;;;3.80;;
11054;SDS011;5580;50.106;8.702;2022-09-03T07:54:04;5.80;;;4.00;;
11054;SDS011;5580;50.106;8.702;2022-09-03T07:56:31;5.03;;;3.80;;
11054;SDS011;5580;50.106;8.702;2022-09-03T07:58:59;5.43;;;3.90;;
11054;SDS011;5580;50.106;8.702;2022-09-03T08:01:26;5.60;;;3.93;;
11054;SDS011;5580;50.106;8.702;2022-09-03T08:03:53;6.37;;;3.97;;
11054;SDS011;5580;50.106;8.702;2022-09-03T08:06:21;5.20;;;3.77;;
11054;SDS011;5580;50.106;8.702;2022-09-03T08:08:52;7.07;;;4.50;;
11054;SDS011;5580;50.106;8.702;2022-09-03T08:11:24;5.67;;;3.90;;
11054;SDS011;5580;50.106;8.702;2022-09-03T08:13:58;4.47;;;4.07;;
11054;SDS011;5580;50.106;8.702;2022-09-03T08:16:27;6.77;;;3.90;;
11054;SDS011;5580;50.106;8.702;2022-09-03T08:18:54;6.70;;;4.10;;
11054;SDS011;5580;50.106;8.702;2022-09-03T08:21:21;9.00;;;4.50;;
11054;SDS011;5580;50.106;8.702;2022-09-03T08:23:48;6.17;;;4.30;;
11054;SDS011;5580;50.106;8.702;2022-09-03T08:26:15;6.20;;;4.17;;
11054;SDS011;5580;50.106;8.702;2022-09-03T08:28:42;5.73;;;4.40;;
11054;SDS011;5580;50.106;8.702;2022-09-03T08:31:09;8.83;;;4.50;;
11054;SDS011;5580;50.106;8.702;2022-09-03T08:33:37;9.27;;;4.70;;
11054;SDS011;5580;50.106;8.702;2022-09-03T08:36:06;8.40;;;4.80;;
11054;SDS011;5580;50.106;8.702;2022-09-03T08:38:34;8.00;;;4.47;;
11054;SDS011;5580;50.106;8.702;2022-09-03T08:41:17;8.50;;;4.60;;
11054;SDS011;5580;50.106;8.702;2022-09-03T08:49:26;8.20;;;4.90;;
11054;SDS011;5580;50.106;8.702;2022-09-03T08:52:10;10.77;;;5.47;;
11054;SDS011;5580;50.106;8.702;2022-09-03T08:54:45;7.23;;;5.40;;
11054;SDS011;5580;50.106;8.702;2022-09-03T08:57:12;9.83;;;5.80;;
11054;SDS011;5580;50.106;8.702;2022-09-03T08:59:40;9.70;;;5.80;;
11054;SDS011;5580;50.106;8.702;2022-09-03T09:07:36;10.10;;;6.70;;
11054;SDS011;5580;50.106;8.702;2022-09-03T09:13:04;8.97;;;6.50;;
11054;SDS011;5580;50.106;8.702;2022-09-03T09:21:14;11.27;;;7.13;;
11054;SDS011;5580;50.106;8.702;2022-09-03T09:23:48;10.30;;;6.47;;
11054;SDS011;5580;50.106;8.702;2022-09-03T09:26:16;10.83;;;6.57;;
11054;SDS011;5580;50.106;8.702;2022-09-03T09:28:48;11.33;;;6.30;;
11054;SDS011;5580;50.106;8.702;2022-09-03T09:31:19;9.30;;;6.30;;
11054;SDS011;5580;50.106;8.702;2022-09-03T09:33:45;8.93;;;6.30;;
11054;SDS011;5580;50.106;8.702;2022-09-03T09:36:13;10.33;;;5.83;;
11054;SDS011;5580;50.106;8.702;2022-09-03T09:38:41;9.70;;;6.23;;
11054;SDS011;5580;50.106;8.702;2022-09-03T09:41:08;10.27;;;6.37;;
11054;SDS011;5580;50.106;8.702;2022-09-03T09:43:35;8.33;;;6.13;;
11054;SDS011;5580;50.106;8.702;2022-09-03T09:46:06;9.37;;;6.17;;
11054;SDS011;5580;50.106;8.702;2022-09-03T09:48:37;8.23;;;5.67;;
11054;SDS011;5580;50.106;8.702;2022-09-03T09:51:16;8.40;;;5.80;;
11054;SDS011;5580;50.106;8.702;2022-09-03T09:54:10;8.30;;;5.77;;
11054;SDS011;5580;50.106;8.702;2022-09-03T09:56:36;7.43;;;5.43;;
11054;SDS011;5580;50.106;8.702;2022-09-03T09:59:03;8.63;;;5.53;;
11054;SDS011;5580;50.106;8.702;2022-09-03T10:01:35;9.00;;;5.50;;
11054;SDS011;5580;50.106;8.702;2022-09-03T10:04:07;8.00;;;5.43;;
11054;SDS011;5580;50.106;8.702;2022-09-03T10:06:34;11.50;;;5.47;;
11054;SDS011;5580;50.106;8.702;2022-09-03T10:09:39;7.40;;;5.33;;
11054;SDS011;5580;50.106;8.702;2022-09-03T10:12:08;8.17;;;5.47;;
11054;SDS011;5580;50.106;8.702;2022-09-03T10:14:57;8.30;;;5.30;;
11054;SDS011;5580;50.106;8.702;2022-09-03T10:23:14;7.03;;;5.47;;
11054;SDS011;5580;50.106;8.702;2022-09-03T10:25:54;9.83;;;5.50;;
11054;SDS011;5580;50.106;8.702;2022-09-03T10:28:34;8.83;;;5.40;;
11054;SDS011;5580;50.106;8.702;2022-09-03T10:36:24;7.63;;;5.67;;
11054;SDS011;5580;50.106;8.702;2022-09-03T10:39:01;8.63;;;5.47;;
11054;SDS011;5580;50.106;8.702;2022-09-03T10:41:39;8.73;;;5.40;;
11054;SDS011;5580;50.106;8.702;2022-09-03T10:44:43;9.70;;;5.63;;
11054;SDS011;5580;50.106;8.702;2022-09-03T10:50:24;8.00;;;5.50;;
11054;SDS011;5580;50.106;8.702;2022-09-03T10:56:05;8.13;;;6.00;;
11054;SDS011;5580;50.106;8.702;2022-09-03T11:01:09;9.73;;;5.50;;
11054;SDS011;5580;50.106;8.702;2022-09-03T11:04:04;7.27;;;5.37;;
11054;SDS011;5580;50.106;8.702;2022-09-03T11:06:51;7.13;;;5.67;;
11054;SDS011;5580;50.106;8.702;2022-09-03T11:09:42;8.07;;;5.20;;
11054;SDS011;5580;50.106;8.702;2022-09-03T11:12:23;8.77;;;5.50;;
11054;SDS011;5580;50.106;8.702;2022-09-03T11:17:27;7.57;;;5.67;;
11054;SDS011;5580;50.106;8.702;2022-09-03T11:22:33;8.13;;;5.30;;
11054;SDS011;5580;50.106;8.702;2022-09-03T11:24:59;7.20;;;5.20;;
11054;SDS011;5580;50.106;8.702;2022-09-03T11:27:32;7.90;;;5.20;;
11054;SDS011;5580;50.106;8.702;2022-09-03T11:30:03;6.53;;;5.20;;
11054;SDS011;5580;50.106;8.702;2022-09-03T11:32:40;10.30;;;5.50;;
11054;SDS011;5580;50.106;8.702;2022-09-03T11:35:25;9.30;;;5.63;;
11054;SDS011;5580;50.106;8.702;2022-09-03T11:37:52;8.73;;;6.50;;
11054;SDS011;5580;50.106;8.702;2022-09-03T11:40:40;9.57;;;6.30;;
11054;SDS011;5580;50.106;8.702;2022-09-03T11:43:30;8.40;;;6.07;;
11054;SDS011;5580;50.106;8.702;2022-09-03T11:51:42;7.83;;;6.10;;
11054;SDS011;5580;50.106;8.702;2022-09-03T11:56:48;11.33;;;6.40;;
11054;SDS011;5580;50.106;8.702;2022-09-03T11:59:21;9.23;;;5.70;;
11054;SDS011;5580;50.106;8.702;2022-09-03T12:02:00;8.53;;;6.67;;
11054;SDS011;5580;50.106;8.702;2022-09-03T12:04:35;12.10;;;6.10;;
11054;SDS011;5580;50.106;8.702;2022-09-03T12:18:17;6.80;;;5.63;;
11054;SDS011;5580;50.106;8.702;2022-09-03T12:24:02;7.93;;;5.10;;
11054;SDS011;5580;50.106;8.702;2022-09-03T12:26:21;7.73;;;5.33;;
11054;SDS011;5580;50.106;8.702;2022-09-03T12:28:56;8.97;;;5.10;;
11054;SDS011;5580;50.106;8.702;2022-09-03T12:31:25;8.23;;;5.57;;
11054;SDS011;5580;50.106;8.702;2022-09-03T12:36:36;6.50;;;5.20;;
11054;SDS011;5580;50.106;8.702;2022-09-03T12:39:16;7.33;;;5.30;;
11054;SDS011;5580;50.106;8.702;2022-09-03T12:49:38;6.67;;;4.83;;
11054;SDS011;5580;50.106;8.702;2022-09-03T12:54:46;6.43;;;5.07;;
11054;SDS011;5580;50.106;8.702;2022-09-03T12:57:13;7.00;;;5.17;;
11054;SDS011;5580;50.106;8.702;2022-09-03T12:59:45;7.70;;;5.77;;
11054;SDS011;5580;50.106;8.702;2022-09-03T13:02:16;9.03;;;5.50;;
11054;SDS011;5580;50.106;8.702;2022-09-03T13:04:47;7.93;;;5.07;;
11054;SDS011;5580;50.106;8.702;2022-09-03T13:07:18;6.77;;;4.87;;
11054;SDS011;5580;50.106;8.702;2022-09-03T13:09:57;7.23;;;5.33;;
11054;SDS011;5580;50.106;8.702;2022-09-03T13:12:30;6.90;;;5.30;;
11054;SDS011;5580;50.106;8.702;2022-09-03T13:15:03;6.80;;;5.17;;
11054;SDS011;5580;50.106;8.702;2022-09-03T13:17:36;8.60;;;4.80;;
11054;SDS011;5580;50.106;8.702;2022-09-03T13:25:54;6.27;;;5.00;;
11054;SDS011;5580;50.106;8.702;2022-09-03T13:31:47;6.63;;;4.90;;
11054;SDS011;5580;50.106;8.702;2022-09-03T13:39:29;7.63;;;4.97;;
11054;SDS011;5580;50.106;8.702;2022-09-03T13:42:09;7.63;;;5.13;;
11054;SDS011;5580;50.106;8.702;2022-09-03T13:50:08;7.33;;;5.03;;
11054;SDS011;5580;50.106;8.702;2022-09-03T13:52:50;8.50;;;5.40;;
11054;SDS011;5580;50.106;8.702;2022-09-03T13:58:03;7.70;;;5.00;;
11054;SDS011;5580;50.106;8.702;2022-09-03T14:00:46;6.47;;;4.70;;
11054;SDS011;5580;50.106;8.702;2022-09-03T14:03:34;5.03;;;4.43;;
11054;SDS011;5580;50.106;8.702;2022-09-03T14:12:13;7.20;;;4.93;;
11054;SDS011;5580;50.106;8.702;2022-09-03T14:15:02;5.20;;;4.60;;
11054;SDS011;5580;50.106;8.702;2022-09-03T14:22:55;5.03;;;4.50;;
11054;SDS011;5580;50.106;8.702;2022-09-03T14:25:30;5.83;;;4.80;;
11054;SDS011;5580;50.106;8.702;2022-09-03T14:33:45;8.27;;;4.43;;
11054;SDS011;5580;50.106;8.702;2022-09-03T14:36:34;6.47;;;4.70;;
11054;SDS011;5580;50.106;8.702;2022-09-03T14:39:22;6.83;;;4.30;;
11054;SDS011;5580;50.106;8.702;2022-09-03T14:41:55;4.57;;;4.17;;
11054;SDS011;5580;50.106;8.702;2022-09-03T14:50:10;5.83;;;4.43;;
11054;SDS011;5580;50.106;8.702;2022-09-03T14:58:46;5.17;;;4.00;;
11054;SDS011;5580;50.106;8.702;2022-09-03T15:01:24;4.90;;;4.23;;
11054;SDS011;5580;50.106;8.702;2022-09-03T15:07:07;4.03;;;3.73;;
11054;SDS011;5580;50.106;8.702;2022-09-03T15:15:21;4.43;;;3.83;;
11054;SDS011;5580;50.106;8.702;2022-09-03T15:23:31;4.63;;;3.97;;
11054;SDS011;5580;50.106;8.702;2022-09-03T15:34:09;4.10;;;3.70;;
11054;SDS011;5580;50.106;8.702;2022-09-03T15:36:57;4.50;;;4.10;;
11054;SDS011;5580;50.106;8.702;2022-09-03T15:39:29;4.20;;;3.80;;
11054;SDS011;5580;50.106;8.702;2022-09-03T15:44:27;4.73;;;3.70;;
11054;SDS011;5580;50.106;8.702;2022-09-03T15:50:09;4.30;;;3.90;;
11054;SDS011;5580;50.106;8.702;2022-09-03T15:52:56;5.23;;;4.17;;
11054;SDS011;5580;50.106;8.702;2022-09-03T15:55:34;5.60;;;4.00;;
11054;SDS011;5580;50.106;8.702;2022-09-03T16:00:49;6.73;;;4.43;;
11054;SDS011;5580;50.106;8.702;2022-09-03T16:03:21;6.50;;;4.27;;
11054;SDS011;5580;50.106;8.702;2022-09-03T16:06:04;4.77;;;4.23;;
11054;SDS011;5580;50.106;8.702;2022-09-03T16:08:36;6.37;;;4.30;;
11054;SDS011;5580;50.106;8.702;2022-09-03T16:21:46;5.60;;;4.30;;
11054;SDS011;5580;50.106;8.702;2022-09-03T16:24:23;5.00;;;4.20;;
11054;SDS011;5580;50.106;8.702;2022-09-03T16:29:27;6.23;;;4.60;;
11054;SDS011;5580;50.106;8.702;2022-09-03T16:34:59;5.10;;;4.17;;
11054;SDS011;5580;50.106;8.702;2022-09-03T16:38:02;5.60;;;4.00;;
11054;SDS011;5580;50.106;8.702;2022-09-03T17:00:21;5.43;;;4.27;;
11054;SDS011;5580;50.106;8.702;2022-09-03T17:05:47;5.30;;;4.30;;
11054;SDS011;5580;50.106;8.702;2022-09-03T17:16:50;5.53;;;4.07;;
11054;SDS011;5580;50.106;8.702;2022-09-03T17:24:55;4.97;;;4.10;;
11054;SDS011;5580;50.106;8.702;2022-09-03T17:30:27;6.23;;;3.30;;
11054;SDS011;5580;50.106;8.702;2022-09-03T17:33:42;3.47;;;2.97;;
11054;SDS011;5580;50.106;8.702;2022-09-03T17:47:02;3.63;;;2.87;;
11054;SDS011;5580;50.106;8.702;2022-09-03T17:49:44;6.07;;;3.33;;
11054;SDS011;5580;50.106;8.702;2022-09-03T17:55:12;4.03;;;3.63;;
11054;SDS011;5580;50.106;8.702;2022-09-03T17:57:59;6.67;;;4.07;;
11054;SDS011;5580;50.106;8.702;2022-09-03T18:06:05;5.97;;;3.70;;
11054;SDS011;5580;50.106;8.702;2022-09-03T18:11:30;2.70;;;2.50;;
11054;SDS011;5580;50.106;8.702;2022-09-03T18:16:51;1.97;;;1.87;;
11054;SDS011;5580;50.106;8.702;2022-09-03T18:22:17;2.50;;;2.30;;
11054;SDS011;5580;50.106;8.702;2022-09-03T18:25:05;2.67;;;2.40;;
11054;SDS011;5580;50.106;8.702;2022-09-03T18:27:56;2.07;;;1.97;;
11054;SDS011;5580;50.106;8.702;2022-09-03T18:30:44;1.60;;;1.50;;
11054;SDS011;5580;50.106;8.702;2022-09-03T18:33:28;2.20;;;2.00;;
11054;SDS011;5580;50.106;8.702;2022-09-03T18:36:13;2.30;;;2.00;;
11054;SDS011;5580;50.106;8.702;2022-09-03T18:39:00;2.57;;;2.37;;
11054;SDS011;5580;50.106;8.702;2022-09-03T18:54:43;4.00;;;2.87;;
11054;SDS011;5580;50.106;8.702;2022-09-03T18:57:38;3.23;;;2.30;;
11054;SDS011;5580;50.106;8.702;2022-09-03T19:00:58;3.03;;;2.33;;
11054;SDS011;5580;50.106;8.702;2022-09-03T19:09:50;2.40;;;2.20;;
11054;SDS011;5580;50.106;8.702;2022-09-03T19:16:04;2.73;;;2.30;;
11054;SDS011;5580;50.106;8.702;2022-09-03T19:19:10;2.87;;;1.87;;
11054;SDS011;5580;50.106;8.702;2022-09-03T19:22:07;4.37;;;3.13;;
11054;SDS011;5580;50.106;8.702;2022-09-03T19:24:55;3.07;;;2.53;;
11054;SDS011;5580;50.106;8.702;2022-09-03T19:30:57;4.97;;;2.50;;
11054;SDS011;5580;50.106;8.702;2022-09-03T19:49:31;3.17;;;1.83;;
11054;SDS011;5580;50.106;8.702;2022-09-03T19:55:14;3.47;;;2.30;;
11054;SDS011;5580;50.106;8.702;2022-09-03T19:58:09;4.17;;;2.67;;
11054;SDS011;5580;50.106;8.702;2022-09-03T20:00:55;3.00;;;2.30;;
11054;SDS011;5580;50.106;8.702;2022-09-03T20:03:41;3.20;;;2.70;;
11054;SDS011;5580;50.106;8.702;2022-09-03T20:06:25;2.10;;;1.83;;
11054;SDS011;5580;50.106;8.702;2022-09-03T20:09:12;4.40;;;2.70;;
11054;SDS011;5580;50.106;8.702;2022-09-03T20:11:59;4.20;;;2.90;;
11054;SDS011;5580;50.106;8.702;2022-09-03T20:14:29;2.40;;;2.20;;
11054;SDS011;5580;50.106;8.702;2022-09-03T20:22:51;4.23;;;2.50;;
11054;SDS011;5580;50.106;8.702;2022-09-03T20:28:11;2.20;;;1.97;;
11054;SDS011;5580;50.106;8.702;2022-09-03T20:39:33;4.53;;;3.60;;
11054;SDS011;5580;50.106;8.702;2022-09-03T20:45:18;6.87;;;3.60;;
11054;SDS011;5580;50.106;8.702;2022-09-03T20:48:08;6.80;;;3.53;;
11054;SDS011;5580;50.106;8.702;2022-09-03T20:56:21;5.00;;;3.13;;
11054;SDS011;5580;50.106;8.702;2022-09-03T21:04:34;4.27;;;3.40;;
11054;SDS011;5580;50.106;8.702;2022-09-03T21:07:18;4.13;;;3.50;;
11054;SDS011;5580;50.106;8.702;2022-09-03T21:17:54;4.40;;;3.40;;
11054;SDS011;5580;50.106;8.702;2022-09-03T21:25:57;5.80;;;3.97;;
11054;SDS011;5580;50.106;8.702;2022-09-03T21:28:38;4.43;;;3.17;;
11054;SDS011;5580;50.106;8.702;2022-09-03T21:31:09;5.60;;;3.00;;
11054;SDS011;5580;50.106;8.702;2022-09-03T21:33:47;8.17;;;3.53;;
11054;SDS011;5580;50.106;8.702;2022-09-03T21:36:23;3.90;;;3.30;;
11054;SDS011;5580;50.106;8.702;2022-09-03T21:39:18;3.67;;;3.20;;
11054;SDS011;5580;50.106;8.702;2022-09-03T21:41:59;4.63;;;3.20;;
11054;SDS011;5580;50.106;8.702;2022-09-03T21:47:18;5.00;;;3.30;;
11054;SDS011;5580;50.106;8.702;2022-09-03T21:52:18;4.60;;;3.20;;
11054;SDS011;5580;50.106;8.702;2022-09-03T21:54:49;3.57;;;2.87;;
11054;SDS011;5580;50.106;8.702;2022-09-03T22:00:17;3.33;;;2.93;;
11054;SDS011;5580;50.106;8.702;2022-09-03T22:02:53;4.87;;;3.07;;
11054;SDS011;5580;50.106;8.702;2022-09-03T22:05:22;4.80;;;2.93;;
11054;SDS011;5580;50.106;8.702;2022-09-03T22:07:54;5.63;;;2.97;;
11054;SDS011;5580;50.106;8.702;2022-09-03T22:13:29;6.57;;;3.50;;
11054;SDS011;5580;50.106;8.702;2022-09-03T22:16:09;4.43;;;3.33;;
11054;SDS011;5580;50.106;8.702;2022-09-03T22:18:47;5.13;;;3.63;;
11054;SDS011;5580;50.106;8.702;2022-09-03T22:24:38;6.17;;;3.73;;
11054;SDS011;5580;50.106;8.702;2022-09-03T22:30:08;5.50;;;3.70;;
11054;SDS011;5580;50.106;8.702;2022-09-03T22:38:04;6.37;;;3.50;;
11054;SDS011;5580;50.106;8.702;2022-09-03T22:43:17;5.83;;;3.60;;
11054;SDS011;5580;50.106;8.702;2022-09-03T22:48:44;5.27;;;3.40;;